Terminal Aerodrome Forecast
Issued by NWS

Home | Current Version | Previous Version | Text Only | Print | Product List | Glossary On
Versions: 1 2 3 4 5 6 7 8 9 10 11 12 13 14 15 16 17 18 19
000
FTAK31 PAJN 292327
TAFAPG
TAF
PAPG 292327Z 3000/3024 VRB04KT P6SM VCSH FEW012 BKN022 OVC030
     FM300800 00000KT 6SM -RA BR BKN012
     FM301800 05005KT P6SM VCSH BKN020 OVC050
      AMD LTD TO CLD VIS AND WIND 3006/3015=

USA.gov is the U.S. government's official web portal to all federal, state and local government web resources and services.